createdAt,value
2018-11-12T00:01:40.937Z,94.60
2018-11-12T00:04:08.486Z,94.70
2018-11-12T00:06:36.074Z,94.70
2018-11-12T00:09:03.628Z,94.80
2018-11-12T00:11:31.175Z,94.80
2018-11-12T00:13:58.761Z,94.80
2018-11-12T00:16:27.080Z,94.90
2018-11-12T00:18:54.628Z,94.90
2018-11-12T00:21:22.226Z,94.90
2018-11-12T00:23:49.785Z,94.90
2018-11-12T00:26:17.345Z,95.00
2018-11-12T00:28:44.937Z,95.00
2018-11-12T00:31:12.490Z,94.90
2018-11-12T00:33:40.036Z,94.90
2018-11-12T00:36:07.631Z,94.90
2018-11-12T00:38:35.943Z,94.90
2018-11-12T00:41:03.502Z,94.90
2018-11-12T00:43:31.081Z,94.80
2018-11-12T00:45:58.644Z,94.80
2018-11-12T00:48:26.230Z,94.90
2018-11-12T00:50:53.785Z,94.90
2018-11-12T00:53:21.641Z,94.90
2018-11-12T00:55:49.262Z,94.90
2018-11-12T00:58:17.584Z,94.90
2018-11-12T01:00:45.135Z,94.90
2018-11-12T01:03:12.735Z,94.80
2018-11-12T01:05:40.280Z,94.80
2018-11-12T01:08:07.829Z,94.80
2018-11-12T01:10:35.415Z,94.90
2018-11-12T01:13:02.972Z,94.50
2018-11-12T01:15:30.538Z,94.50
2018-11-12T01:17:58.126Z,94.70
2018-11-12T01:20:26.445Z,94.50
2018-11-12T01:22:54.326Z,94.50
2018-11-12T01:25:21.875Z,94.50
2018-11-12T01:27:49.433Z,94.60
2018-11-12T01:30:17.020Z,94.60
2018-11-12T01:32:44.586Z,94.50
2018-11-12T01:35:12.140Z,94.70
2018-11-12T01:37:39.733Z,95.00
2018-11-12T01:40:08.048Z,94.70
2018-11-12T01:42:35.623Z,94.70
2018-11-12T01:45:03.232Z,94.70
2018-11-12T01:47:30.785Z,94.90
2018-11-12T01:49:58.345Z,95.00
2018-11-12T01:52:25.929Z,95.00
2018-11-12T01:54:54.252Z,95.10
2018-11-12T01:57:21.800Z,95.10
2018-11-12T01:59:49.389Z,95.10
2018-11-12T02:02:16.942Z,95.20
2018-11-12T02:04:44.527Z,95.30
2018-11-12T02:07:12.078Z,95.30
2018-11-12T02:09:39.630Z,95.30
2018-11-12T02:12:07.187Z,95.30
2018-11-12T02:14:34.792Z,95.30
2018-11-12T02:17:02.336Z,95.40
2018-11-12T02:19:29.891Z,95.40
2018-11-12T02:21:57.501Z,95.40
2018-11-12T02:24:25.042Z,95.30
2018-11-12T02:26:52.595Z,95.30
2018-11-12T02:29:20.182Z,95.00
2018-11-12T02:31:47.749Z,94.90
2018-11-12T02:34:15.296Z,94.80
2018-11-12T02:36:43.403Z,94.80
2018-11-12T02:39:10.957Z,94.80
2018-11-12T02:41:38.508Z,94.80
2018-11-12T02:44:06.492Z,94.80
2018-11-12T02:46:34.365Z,94.80
2018-11-12T02:49:01.950Z,94.80
2018-11-12T02:51:29.506Z,94.90
2018-11-12T02:53:57.064Z,94.90
2018-11-12T02:56:24.629Z,95.00
2018-11-12T02:58:52.239Z,95.00
2018-11-12T03:01:19.837Z,95.20
2018-11-12T03:03:47.341Z,94.80
2018-11-12T03:06:14.925Z,94.80
2018-11-12T03:08:42.482Z,94.80
2018-11-12T03:11:10.037Z,94.90
2018-11-12T03:13:37.637Z,94.90
2018-11-12T03:16:05.164Z,95.00
2018-11-12T03:18:32.767Z,95.10
2018-11-12T03:21:00.329Z,95.10
2018-11-12T03:23:27.876Z,95.20
2018-11-12T03:25:55.472Z,94.60
2018-11-12T03:28:23.261Z,94.20
2018-11-12T03:30:51.576Z,93.60
2018-11-12T03:33:19.154Z,93.60
2018-11-12T03:35:46.715Z,93.20
2018-11-12T03:38:14.322Z,93.10
2018-11-12T03:40:41.881Z,93.40
2018-11-12T03:43:10.200Z,93.90
2018-11-12T03:45:37.786Z,93.90
2018-11-12T03:48:05.340Z,94.00
2018-11-12T03:50:32.898Z,94.10
2018-11-12T03:53:00.470Z,94.20
2018-11-12T03:55:28.035Z,94.30
2018-11-12T03:57:55.644Z,94.40
2018-11-12T04:00:24.043Z,94.50
2018-11-12T04:02:51.525Z,94.40
2018-11-12T04:05:19.108Z,94.40
2018-11-12T04:07:46.687Z,94.50
2018-11-12T04:10:14.233Z,94.50
2018-11-12T04:12:41.823Z,94.80
2018-11-12T04:15:10.152Z,94.50
2018-11-12T04:17:37.709Z,94.50
2018-11-12T04:20:05.300Z,94.60
2018-11-12T04:22:32.850Z,94.60
2018-11-12T04:25:00.398Z,94.80
2018-11-12T04:27:27.980Z,94.90
2018-11-12T04:29:55.533Z,95.00
2018-11-12T04:32:23.129Z,95.00
2018-11-12T04:34:51.457Z,95.20
2018-11-12T04:37:19.014Z,95.20
2018-11-12T04:39:46.596Z,94.90
2018-11-12T04:42:14.150Z,94.80
2018-11-12T04:44:41.741Z,94.80
2018-11-12T04:47:09.292Z,94.90
2018-11-12T04:49:36.848Z,94.50
2018-11-12T04:52:04.420Z,94.50
2018-11-12T04:54:32.737Z,94.70
2018-11-12T04:57:00.325Z,94.70
2018-11-12T04:59:27.881Z,94.70
2018-11-12T05:01:55.501Z,94.80
2018-11-12T05:04:23.720Z,94.90
2018-11-12T05:06:51.274Z,95.00
2018-11-12T05:09:18.825Z,95.10
2018-11-12T05:11:46.710Z,95.10
2018-11-12T05:14:14.260Z,95.10
2018-11-12T05:16:41.890Z,95.10
2018-11-12T05:19:09.410Z,95.20
2018-11-12T05:21:36.966Z,94.80
2018-11-12T05:24:04.548Z,94.70
2018-11-12T05:26:32.096Z,94.80
2018-11-12T05:28:59.696Z,94.40
2018-11-12T05:31:28.008Z,93.70
2018-11-12T05:33:55.561Z,93.70
2018-11-12T05:36:23.160Z,93.70
2018-11-12T05:38:50.709Z,93.80
2018-11-12T05:41:18.569Z,94.00
2018-11-12T05:43:46.157Z,93.70
2018-11-12T05:46:13.711Z,93.90
2018-11-12T05:48:41.662Z,93.50
2018-11-12T05:51:09.218Z,93.60
2018-11-12T05:53:36.771Z,94.00
2018-11-12T05:56:04.359Z,93.70
2018-11-12T05:58:31.919Z,93.80
2018-11-12T06:00:59.479Z,93.90
2018-11-12T06:03:27.339Z,94.10
2018-11-12T06:05:54.899Z,94.20
2018-11-12T06:08:22.459Z,94.40
2018-11-12T06:10:50.057Z,94.40
2018-11-12T06:13:17.608Z,94.60
2018-11-12T06:15:45.172Z,94.70
2018-11-12T06:18:12.796Z,94.70
2018-11-12T06:20:40.354Z,94.80
2018-11-12T06:23:07.913Z,94.80
2018-11-12T06:25:35.502Z,94.90
2018-11-12T06:28:03.067Z,94.90
2018-11-12T06:30:30.641Z,95.00
2018-11-12T06:32:58.238Z,95.00
2018-11-12T06:35:25.793Z,95.10
2018-11-12T06:37:53.343Z,94.70
2018-11-12T06:40:21.722Z,94.50
2018-11-12T06:42:49.343Z,94.40
2018-11-12T06:45:17.200Z,94.60
2018-11-12T06:47:44.749Z,95.00
2018-11-12T06:50:12.311Z,94.80
2018-11-12T06:52:39.992Z,94.90
2018-11-12T06:55:08.262Z,95.40
2018-11-12T06:57:35.815Z,95.40
2018-11-12T07:00:03.797Z,95.60
2018-11-12T07:02:31.368Z,95.70
2018-11-12T07:04:58.927Z,96.30
2018-11-12T07:07:27.318Z,96.20
2018-11-12T07:12:25.990Z,96.90
2018-11-12T07:14:53.588Z,96.60
2018-11-12T07:17:21.150Z,96.10
2018-11-12T07:19:48.770Z,96.10
2018-11-12T07:22:16.326Z,96.20
2018-11-12T07:24:43.880Z,95.90
2018-11-12T07:27:11.488Z,95.80
2018-11-12T07:29:39.044Z,95.80
2018-11-12T07:32:06.598Z,95.80
2018-11-12T07:34:34.184Z,96.00
2018-11-12T07:37:01.744Z,95.60
2018-11-12T07:39:29.691Z,95.60
2018-11-12T07:41:57.274Z,95.50
2018-11-12T07:44:24.806Z,95.60
2018-11-12T07:46:52.439Z,95.20
2018-11-12T07:49:19.994Z,95.20
2018-11-12T07:51:47.551Z,95.10
2018-11-12T07:54:15.918Z,95.00
2018-11-12T07:56:43.478Z,95.00
2018-11-12T07:59:11.030Z,94.90
2018-11-12T08:01:38.609Z,94.80
2018-11-12T08:04:06.939Z,94.40
2018-11-12T08:06:34.816Z,94.40
2018-11-12T08:09:02.424Z,94.10
2018-11-12T08:11:29.939Z,94.00
2018-11-12T08:13:57.528Z,94.00
2018-11-12T08:16:25.081Z,94.10
2018-11-12T08:18:52.683Z,93.70
2018-11-12T08:21:20.239Z,93.70
2018-11-12T08:23:47.798Z,93.70
2018-11-12T08:26:15.415Z,93.40
2018-11-12T08:28:42.981Z,93.40
2018-11-12T08:31:10.930Z,93.30
2018-11-12T08:33:39.340Z,93.20
2018-11-12T08:36:06.908Z,92.90
2018-11-12T08:38:34.455Z,92.90
2018-11-12T08:41:02.112Z,92.90
2018-11-12T08:43:30.365Z,92.90
2018-11-12T08:45:58.013Z,92.60
2018-11-12T08:48:25.583Z,92.50
2018-11-12T08:50:53.096Z,92.20
2018-11-12T08:53:22.571Z,91.90
2018-11-12T08:55:50.128Z,91.80
2018-11-12T08:58:18.406Z,91.70
2018-11-12T09:00:45.385Z,91.60
2018-11-12T09:03:12.848Z,91.70
2018-11-12T09:05:41.204Z,91.60
2018-11-12T09:08:08.779Z,91.50
2018-11-12T09:10:36.342Z,91.50
2018-11-12T09:13:03.900Z,91.40
2018-11-12T09:15:31.517Z,91.40
2018-11-12T09:17:59.074Z,91.30
2018-11-12T09:20:26.651Z,91.30
2018-11-12T09:22:56.028Z,91.20
2018-11-12T09:25:23.544Z,91.10
2018-11-12T09:27:51.102Z,91.00
2018-11-12T09:30:18.715Z,91.10
2018-11-12T09:32:46.531Z,90.80
2018-11-12T09:35:13.839Z,90.60
2018-11-12T09:37:41.447Z,90.40
2018-11-12T09:40:09.054Z,90.30
2018-11-12T09:42:36.648Z,90.40
2018-11-12T09:45:04.210Z,90.30
2018-11-12T09:47:31.801Z,90.30
2018-11-12T09:49:59.391Z,90.40
2018-11-12T09:52:26.948Z,90.30
2018-11-12T09:54:54.513Z,90.30
2018-11-12T09:57:22.942Z,90.20
2018-11-12T09:59:50.505Z,90.20
2018-11-12T10:02:18.564Z,90.20
2018-11-12T10:04:47.355Z,90.20
2018-11-12T10:07:15.270Z,90.10
2018-11-12T10:09:42.433Z,90.10
2018-11-12T10:12:11.367Z,90.20
2018-11-12T10:14:39.868Z,90.20
2018-11-12T10:17:07.903Z,90.00
2018-11-12T10:19:33.691Z,89.60
2018-11-12T10:22:01.186Z,89.60
2018-11-12T10:24:28.792Z,89.10
2018-11-12T10:26:56.352Z,88.70
2018-11-12T10:29:23.916Z,88.20
2018-11-12T10:31:51.560Z,87.60
2018-11-12T10:34:19.120Z,87.60
2018-11-12T10:36:46.695Z,86.40
2018-11-12T10:39:14.277Z,85.70
2018-11-12T10:41:41.840Z,85.50
2018-11-12T10:44:09.777Z,84.90
2018-11-12T10:46:37.328Z,84.60
2018-11-12T10:49:04.911Z,83.70
2018-11-12T10:51:33.384Z,83.10
2018-11-12T10:54:01.066Z,83.20
2018-11-12T10:56:28.513Z,82.80
2018-11-12T10:58:56.992Z,81.80
2018-11-12T11:01:24.557Z,81.70
2018-11-12T11:03:52.116Z,81.50
2018-11-12T11:06:19.703Z,81.00
2018-11-12T11:08:47.305Z,81.10
2018-11-12T11:11:14.858Z,81.00
2018-11-12T11:13:42.481Z,80.60
2018-11-12T11:16:10.732Z,80.50
2018-11-12T11:18:38.295Z,80.20
2018-11-12T11:21:05.882Z,79.30
2018-11-12T11:23:33.443Z,79.60
2018-11-12T11:26:01.003Z,78.40
2018-11-12T11:28:29.171Z,77.90
2018-11-12T11:30:56.783Z,77.40
2018-11-12T11:33:24.293Z,77.60
2018-11-12T11:35:51.907Z,76.20
2018-11-12T11:38:20.518Z,75.60
2018-11-12T11:40:48.161Z,75.60
2018-11-12T11:43:16.446Z,76.70
2018-11-12T11:45:44.005Z,75.90
2018-11-12T11:48:11.640Z,75.80
2018-11-12T11:50:39.247Z,75.80
2018-11-12T11:53:06.727Z,75.50
2018-11-12T11:55:34.345Z,74.80
2018-11-12T11:58:01.898Z,73.80
2018-11-12T12:00:29.940Z,72.70
2018-11-12T12:02:58.625Z,73.00
2018-11-12T12:05:27.582Z,73.00
2018-11-12T12:07:56.519Z,73.40
2018-11-12T12:10:25.142Z,74.20
2018-11-12T12:12:52.698Z,74.10
2018-11-12T12:15:20.256Z,74.10
2018-11-12T12:17:47.896Z,74.20
2018-11-12T12:20:15.469Z,74.20
2018-11-12T12:22:43.072Z,73.80
2018-11-12T12:25:10.799Z,73.50
2018-11-12T12:27:38.496Z,73.50
2018-11-12T12:30:06.059Z,73.60
2018-11-12T12:32:33.726Z,73.70
2018-11-12T12:35:02.517Z,74.40
2018-11-12T12:37:30.111Z,74.40
2018-11-12T12:39:57.706Z,74.40
2018-11-12T12:42:25.273Z,74.50
2018-11-12T12:44:52.911Z,74.30
2018-11-12T12:47:20.431Z,74.50
2018-11-12T12:49:47.993Z,74.80
2018-11-12T12:52:15.546Z,74.90
2018-11-12T12:54:43.617Z,75.00
2018-11-12T12:57:11.179Z,75.00
2018-11-12T12:59:38.774Z,75.00
2018-11-12T13:02:06.359Z,74.80
2018-11-12T13:04:34.663Z,74.80
2018-11-12T13:07:02.224Z,74.80
2018-11-12T13:09:29.859Z,74.30
2018-11-12T13:11:57.421Z,73.90
2018-11-12T13:14:25.009Z,73.90
2018-11-12T13:16:53.042Z,74.00
2018-11-12T13:19:21.362Z,73.50
2018-11-12T13:21:48.919Z,73.40
2018-11-12T13:24:17.738Z,73.60
2018-11-12T13:26:45.293Z,73.60
2018-11-12T13:29:12.848Z,73.50
2018-11-12T13:31:40.693Z,73.60
2018-11-12T13:34:08.261Z,73.50
2018-11-12T13:36:35.821Z,73.30
2018-11-12T13:39:03.410Z,72.80
2018-11-12T13:41:30.959Z,72.90
2018-11-12T13:43:58.587Z,73.20
2018-11-12T13:46:26.194Z,73.20
2018-11-12T13:48:53.701Z,73.40
2018-11-12T13:51:22.080Z,73.70
2018-11-12T13:53:50.630Z,74.00
2018-11-12T13:56:18.185Z,74.00
2018-11-12T13:58:45.823Z,74.30
2018-11-12T14:01:13.384Z,74.70
2018-11-12T14:03:40.940Z,74.60
2018-11-12T14:06:08.561Z,74.80
2018-11-12T14:08:36.888Z,74.90
2018-11-12T14:11:04.447Z,74.80
2018-11-12T14:13:32.075Z,74.80
2018-11-12T14:15:59.640Z,75.00
2018-11-12T14:18:27.201Z,75.30
2018-11-12T14:20:54.925Z,75.90
2018-11-12T14:23:22.398Z,76.10
2018-11-12T14:25:49.950Z,76.30
2018-11-12T14:28:17.831Z,76.50
2018-11-12T14:30:45.376Z,76.70
2018-11-12T14:33:13.003Z,76.80
2018-11-12T14:35:40.595Z,76.60
2018-11-12T14:38:08.857Z,75.30
2018-11-12T14:40:36.462Z,75.20
2018-11-12T14:43:04.793Z,75.50
2018-11-12T14:45:32.361Z,75.50
2018-11-12T14:48:00.022Z,75.60
2018-11-12T14:50:27.585Z,75.70
2018-11-12T14:52:55.151Z,76.10
2018-11-12T14:55:22.790Z,76.30
2018-11-12T14:57:50.349Z,76.50
2018-11-12T15:00:17.906Z,76.40
2018-11-12T15:02:45.505Z,76.60
2018-11-12T15:05:13.060Z,76.90
2018-11-12T15:07:40.671Z,77.20
2018-11-12T15:10:08.996Z,77.70
2018-11-12T15:12:36.556Z,77.70
2018-11-12T15:15:04.233Z,78.10
2018-11-12T15:17:32.507Z,78.80
2018-11-12T15:20:00.068Z,78.70
2018-11-12T15:22:27.717Z,78.90
2018-11-12T15:24:55.243Z,78.80
2018-11-12T15:27:22.803Z,79.20
2018-11-12T15:29:50.402Z,79.30
2018-11-12T15:32:17.963Z,79.30
2018-11-12T15:34:45.525Z,79.50
2018-11-12T15:37:14.115Z,79.70
2018-11-12T15:39:41.485Z,80.10
2018-11-12T15:42:09.039Z,80.20
2018-11-12T15:44:36.653Z,80.50
2018-11-12T15:47:04.208Z,80.70
2018-11-12T15:49:32.534Z,81.00
2018-11-12T15:52:00.136Z,81.00
2018-11-12T15:54:28.459Z,81.40
2018-11-12T15:56:56.078Z,81.40
2018-11-12T15:59:23.902Z,81.50
2018-11-12T16:01:51.462Z,81.60
2018-11-12T16:04:19.032Z,81.50
2018-11-12T16:06:47.579Z,81.50
2018-11-12T16:09:15.075Z,81.40
2018-11-12T16:11:42.650Z,81.50
2018-11-12T16:14:10.260Z,81.40
2018-11-12T16:16:37.811Z,81.30
2018-11-12T16:19:05.379Z,81.10
2018-11-12T16:21:33.790Z,80.60
2018-11-12T16:24:01.355Z,80.50
2018-11-12T16:26:28.967Z,80.60
2018-11-12T16:28:56.519Z,80.60
2018-11-12T16:31:24.844Z,81.20
2018-11-12T16:33:52.405Z,81.20
2018-11-12T16:36:20.049Z,81.30
2018-11-12T16:38:47.617Z,81.40
2018-11-12T16:41:15.179Z,81.60
2018-11-12T16:43:42.792Z,81.80
2018-11-12T16:46:10.435Z,82.00
2018-11-12T16:48:37.906Z,82.20
2018-11-12T16:51:05.528Z,82.50
2018-11-12T16:53:33.078Z,82.10
2018-11-12T16:56:00.645Z,81.60
2018-11-12T16:58:29.113Z,82.40
2018-11-12T17:00:56.679Z,81.80
2018-11-12T17:03:24.238Z,82.10
2018-11-12T17:05:52.661Z,82.30
2018-11-12T17:08:20.227Z,82.60
2018-11-12T17:10:47.783Z,83.10
2018-11-12T17:13:15.418Z,83.30
2018-11-12T17:15:43.221Z,83.60
2018-11-12T17:18:10.783Z,83.10
2018-11-12T17:20:38.371Z,83.30
2018-11-12T17:23:06.736Z,84.30
2018-11-12T17:25:34.343Z,83.70
2018-11-12T17:28:01.927Z,83.70
2018-11-12T17:30:29.490Z,83.40
2018-11-12T17:32:57.099Z,83.60
2018-11-12T17:35:25.426Z,83.80
2018-11-12T17:37:53.000Z,83.70
2018-11-12T17:40:21.391Z,83.90
2018-11-12T17:42:48.945Z,84.30
2018-11-12T17:45:16.504Z,84.20
2018-11-12T17:47:44.131Z,84.50
2018-11-12T17:50:11.714Z,84.80
2018-11-12T17:52:39.334Z,85.20
2018-11-12T17:55:06.914Z,85.40
2018-11-12T17:57:34.471Z,86.10
2018-11-12T18:00:02.025Z,85.50
2018-11-12T18:02:30.415Z,86.00
2018-11-12T18:04:57.994Z,86.00
2018-11-12T18:07:25.682Z,86.20
2018-11-12T18:09:53.175Z,86.60
2018-11-12T18:12:21.274Z,87.00
2018-11-12T18:14:49.694Z,86.90
2018-11-12T18:17:17.254Z,86.90
2018-11-12T18:19:44.820Z,87.00
2018-11-12T18:22:12.455Z,86.90
2018-11-12T18:24:40.546Z,87.70
2018-11-12T18:27:08.115Z,87.10
2018-11-12T18:29:36.501Z,86.10
2018-11-12T18:32:04.065Z,85.90
2018-11-12T18:34:31.638Z,85.60
2018-11-12T18:36:59.258Z,85.40
2018-11-12T18:39:26.821Z,84.80
2018-11-12T18:41:54.375Z,84.50
2018-11-12T18:44:21.985Z,84.10
2018-11-12T18:46:49.554Z,84.10
2018-11-12T18:49:17.116Z,84.40
2018-11-12T18:51:44.723Z,85.20
2018-11-12T18:54:12.308Z,84.70
2018-11-12T18:56:39.849Z,85.10
2018-11-12T18:59:08.049Z,85.40
2018-11-12T19:01:35.625Z,85.60
2018-11-12T19:04:03.185Z,85.90
2018-11-12T19:06:30.784Z,86.10
2018-11-12T19:08:59.119Z,84.90
2018-11-12T19:11:26.687Z,84.80
2018-11-12T19:13:54.322Z,84.80
2018-11-12T19:16:21.890Z,85.10
2018-11-12T19:18:49.450Z,84.60
2018-11-12T19:21:17.447Z,84.90
2018-11-12T19:23:45.288Z,85.10
2018-11-12T19:26:12.846Z,85.50
2018-11-12T19:28:40.436Z,85.50
2018-11-12T19:31:08.010Z,85.50
2018-11-12T19:33:35.639Z,85.60
2018-11-12T19:36:03.193Z,86.40
2018-11-12T19:38:30.778Z,85.80
2018-11-12T19:40:58.686Z,86.10
2018-11-12T19:43:26.170Z,86.40
2018-11-12T19:45:53.792Z,85.90
2018-11-12T19:48:21.351Z,86.10
2018-11-12T19:50:48.918Z,86.70
2018-11-12T19:53:17.269Z,89.00
2018-11-12T19:55:44.843Z,88.90
2018-11-12T19:58:13.500Z,88.70
2018-11-12T20:00:41.062Z,89.10
2018-11-12T20:03:08.631Z,90.20
2018-11-12T20:05:36.241Z,89.80
2018-11-12T20:08:03.816Z,89.80
2018-11-12T20:10:31.388Z,90.00
2018-11-12T20:12:58.996Z,90.20
2018-11-12T20:15:26.606Z,90.30
2018-11-12T20:17:54.131Z,90.40
2018-11-12T20:20:22.502Z,90.40
2018-11-12T20:22:50.065Z,90.40
2018-11-12T20:25:17.629Z,90.50
2018-11-12T20:27:45.229Z,90.60
2018-11-12T20:30:12.791Z,90.80
2018-11-12T20:32:40.343Z,90.90
2018-11-12T20:35:07.950Z,91.00
2018-11-12T20:37:35.507Z,91.20
2018-11-12T20:40:03.077Z,91.20
2018-11-12T20:42:30.695Z,91.30
2018-11-12T20:44:58.254Z,91.30
2018-11-12T20:47:25.820Z,91.40
2018-11-12T20:49:54.483Z,91.50
2018-11-12T20:52:22.816Z,91.40
2018-11-12T20:54:50.377Z,91.40
2018-11-12T20:57:17.978Z,91.40
2018-11-12T20:59:46.305Z,91.70
2018-11-12T21:02:13.874Z,91.60
2018-11-12T21:04:41.743Z,91.60
2018-11-12T21:07:09.301Z,91.70
2018-11-12T21:09:36.879Z,91.70
2018-11-12T21:12:04.465Z,91.80
2018-11-12T21:14:32.024Z,91.90
2018-11-12T21:16:59.577Z,91.90
2018-11-12T21:19:27.246Z,92.00
2018-11-12T21:21:54.775Z,92.10
2018-11-12T21:24:22.340Z,92.20
2018-11-12T21:26:49.956Z,92.20
2018-11-12T21:29:17.525Z,92.30
2018-11-12T21:31:45.094Z,92.40
2018-11-12T21:34:12.996Z,92.50
2018-11-12T21:36:40.568Z,92.50
2018-11-12T21:39:08.136Z,92.60
2018-11-12T21:41:35.749Z,92.70
2018-11-12T21:44:03.354Z,92.80
2018-11-12T21:46:30.883Z,93.10
2018-11-12T21:48:58.493Z,92.70
2018-11-12T21:51:29.163Z,92.70
2018-11-12T21:53:56.684Z,92.70
2018-11-12T21:56:24.295Z,92.80
2018-11-12T21:58:51.860Z,92.90
2018-11-12T22:01:19.429Z,92.90
2018-11-12T22:03:48.066Z,93.00
2018-11-12T22:06:16.388Z,93.00
2018-11-12T22:08:44.023Z,93.00
2018-11-12T22:11:11.562Z,93.00
2018-11-12T22:13:39.137Z,93.00
2018-11-12T22:16:07.458Z,93.20
2018-11-12T22:18:35.665Z,93.20
2018-11-12T22:21:03.219Z,93.20
2018-11-12T22:23:30.781Z,93.30
2018-11-12T22:25:59.158Z,93.40
2018-11-12T22:28:26.714Z,93.00
2018-11-12T22:30:54.275Z,92.60
2018-11-12T22:33:21.877Z,92.70
2018-11-12T22:35:50.215Z,93.00
2018-11-12T22:38:17.785Z,93.00
2018-11-12T22:40:45.401Z,92.70
2018-11-12T22:43:12.967Z,92.90
2018-11-12T22:45:40.569Z,92.50
2018-11-12T22:48:08.106Z,92.60
2018-11-12T22:50:36.090Z,92.60
2018-11-12T22:53:03.700Z,92.70
2018-11-12T22:55:32.025Z,92.90
2018-11-12T22:57:59.594Z,92.90
2018-11-12T23:00:27.197Z,92.90
2018-11-12T23:02:55.528Z,93.20
2018-11-12T23:05:23.092Z,93.20
2018-11-12T23:07:50.683Z,92.80
2018-11-12T23:10:18.241Z,92.70
2018-11-12T23:12:47.011Z,92.80
2018-11-12T23:15:14.568Z,92.80
2018-11-12T23:17:42.127Z,92.90
2018-11-12T23:20:09.717Z,92.90
2018-11-12T23:22:37.273Z,92.90
2018-11-12T23:25:04.841Z,93.10
2018-11-12T23:27:32.440Z,93.10
2018-11-12T23:30:00.012Z,93.20
2018-11-12T23:32:27.570Z,92.90
2018-11-12T23:34:55.569Z,92.90
2018-11-12T23:37:23.135Z,92.90
2018-11-12T23:39:50.701Z,93.10
2018-11-12T23:42:18.309Z,93.20
2018-11-12T23:44:45.876Z,93.30
2018-11-12T23:47:13.443Z,93.50
2018-11-12T23:49:41.041Z,93.60
2018-11-12T23:52:08.676Z,93.70
2018-11-12T23:54:37.088Z,93.70
2018-11-12T23:57:04.646Z,93.70
2018-11-12T23:59:32.216Z,93.80
